createdAt,value
2022-10-09T00:01:26.426Z,9.48
2022-10-09T00:03:55.269Z,9.45
2022-10-09T00:06:24.466Z,9.44
2022-10-09T00:08:50.905Z,9.42
2022-10-09T00:11:20.138Z,9.40
2022-10-09T00:13:48.541Z,9.37
2022-10-09T00:16:17.484Z,9.34
2022-10-09T00:18:45.145Z,9.30
2022-10-09T00:21:32.275Z,9.27
2022-10-09T00:24:01.095Z,9.25
2022-10-09T00:26:28.162Z,9.22
2022-10-09T00:28:55.212Z,9.19
2022-10-09T00:31:22.681Z,9.16
2022-10-09T00:33:49.535Z,9.13
2022-10-09T00:36:19.642Z,9.12
2022-10-09T00:38:46.101Z,9.09
2022-10-09T00:41:19.270Z,9.07
2022-10-09T00:43:55.456Z,9.04
2022-10-09T00:46:35.113Z,9.02
2022-10-09T00:49:39.869Z,8.99
2022-10-09T00:52:07.438Z,8.98
2022-10-09T00:54:37.286Z,8.95
2022-10-09T00:57:03.866Z,8.93
2022-10-09T00:59:31.259Z,8.90
2022-10-09T01:01:57.753Z,8.88
2022-10-09T01:04:24.245Z,8.86
2022-10-09T01:07:18.307Z,8.85
2022-10-09T01:12:43.916Z,8.82
2022-10-09T01:15:26.877Z,8.79
2022-10-09T01:18:16.885Z,8.76
2022-10-09T01:24:13.355Z,8.73
2022-10-09T01:26:45.695Z,8.70
2022-10-09T01:29:15.283Z,8.68
2022-10-09T01:31:45.964Z,8.65
2022-10-09T01:34:14.572Z,8.62
2022-10-09T01:36:43.211Z,8.61
2022-10-09T01:39:16.782Z,8.60
2022-10-09T01:41:43.619Z,8.57
2022-10-09T01:44:18.414Z,8.55
2022-10-09T01:46:45.089Z,8.53
2022-10-09T01:49:28.996Z,8.52
2022-10-09T01:52:16.499Z,8.51
2022-10-09T01:54:50.128Z,8.49
2022-10-09T01:57:23.799Z,8.46
2022-10-09T01:59:52.396Z,8.44
2022-10-09T02:02:20.425Z,8.43
2022-10-09T02:04:49.563Z,8.43
2022-10-09T02:07:17.446Z,8.40
2022-10-09T02:09:45.756Z,8.39
2022-10-09T02:12:14.119Z,8.39
2022-10-09T02:14:40.777Z,8.38
2022-10-09T02:17:17.025Z,8.35
2022-10-09T02:19:48.606Z,8.35
2022-10-09T02:22:16.375Z,8.33
2022-10-09T02:24:44.427Z,8.32
2022-10-09T02:27:13.145Z,8.31
2022-10-09T02:29:44.746Z,8.31
2022-10-09T02:32:12.183Z,8.29
2022-10-09T02:34:39.183Z,8.28
2022-10-09T02:37:06.569Z,8.28
2022-10-09T02:39:32.926Z,8.25
2022-10-09T02:41:59.307Z,8.24
2022-10-09T02:44:25.728Z,8.23
2022-10-09T02:46:52.134Z,8.22
2022-10-09T02:49:18.659Z,8.20
2022-10-09T02:51:45.284Z,8.19
2022-10-09T02:54:11.742Z,8.18
2022-10-09T02:56:39.268Z,8.15
2022-10-09T02:59:06.254Z,8.14
2022-10-09T03:01:32.634Z,8.13
2022-10-09T03:03:59.334Z,8.12
2022-10-09T03:06:27.294Z,8.10
2022-10-09T03:08:54.501Z,8.10
2022-10-09T03:11:22.903Z,8.09
2022-10-09T03:13:49.634Z,8.08
2022-10-09T03:16:18.727Z,8.07
2022-10-09T03:18:45.843Z,8.06
2022-10-09T03:21:14.845Z,8.07
2022-10-09T03:23:42.721Z,8.06
2022-10-09T03:26:12.127Z,8.05
2022-10-09T03:28:40.718Z,8.05
2022-10-09T03:31:07.711Z,8.04
2022-10-09T03:33:35.580Z,8.03
2022-10-09T03:36:02.548Z,8.02
2022-10-09T03:38:28.984Z,8.01
2022-10-09T03:40:55.350Z,8.00
2022-10-09T03:43:21.718Z,7.98
2022-10-09T03:45:48.043Z,7.98
2022-10-09T03:48:14.971Z,7.95
2022-10-09T03:50:42.012Z,7.94
2022-10-09T03:53:10.640Z,7.94
2022-10-09T03:55:37.251Z,7.93
2022-10-09T03:58:03.943Z,7.90
2022-10-09T04:00:30.522Z,7.90
2022-10-09T04:02:57.030Z,7.89
2022-10-09T04:05:23.568Z,7.89
2022-10-09T04:07:50.079Z,7.87
2022-10-09T04:10:16.895Z,7.87
2022-10-09T04:12:43.479Z,7.87
2022-10-09T04:15:10.314Z,7.87
2022-10-09T04:20:05.974Z,7.85
2022-10-09T04:22:32.424Z,7.86
2022-10-09T04:24:58.751Z,7.85
2022-10-09T04:27:25.274Z,7.85
2022-10-09T04:29:51.670Z,7.85
2022-10-09T04:32:18.056Z,7.85
2022-10-09T04:34:44.447Z,7.83
2022-10-09T04:37:10.766Z,7.83
2022-10-09T04:39:37.111Z,7.81
2022-10-09T04:42:03.662Z,7.79
2022-10-09T04:44:29.984Z,7.78
2022-10-09T04:46:56.317Z,7.74
2022-10-09T04:49:22.651Z,7.74
2022-10-09T04:51:49.068Z,7.70
2022-10-09T04:54:15.432Z,7.69
2022-10-09T04:56:41.749Z,7.67
2022-10-09T04:59:08.111Z,7.66
2022-10-09T05:01:38.330Z,7.63
2022-10-09T05:04:05.238Z,7.61
2022-10-09T05:06:31.599Z,7.58
2022-10-09T05:08:58.029Z,7.56
2022-10-09T05:11:25.487Z,7.54
2022-10-09T05:13:56.178Z,7.52
2022-10-09T05:16:26.463Z,7.49
2022-10-09T05:18:57.282Z,7.47
2022-10-09T05:21:24.572Z,7.45
2022-10-09T05:23:52.909Z,7.42
2022-10-09T05:26:21.269Z,7.41
2022-10-09T05:28:48.658Z,7.38
2022-10-09T05:31:27.245Z,7.36
2022-10-09T05:33:54.902Z,7.35
2022-10-09T05:36:21.491Z,7.34
2022-10-09T05:38:48.402Z,7.33
2022-10-09T05:41:17.360Z,7.34
2022-10-09T05:43:45.679Z,7.35
2022-10-09T05:46:15.026Z,7.37
2022-10-09T05:48:43.827Z,7.40
2022-10-09T05:51:13.861Z,7.41
2022-10-09T05:53:41.437Z,7.43
2022-10-09T05:56:17.997Z,7.47
2022-10-09T05:58:49.276Z,7.51
2022-10-09T06:01:16.247Z,7.54
2022-10-09T06:03:42.714Z,7.57
2022-10-09T06:06:09.283Z,7.60
2022-10-09T06:08:37.791Z,7.64
2022-10-09T06:11:15.960Z,7.68
2022-10-09T06:13:43.614Z,7.72
2022-10-09T06:16:11.734Z,7.75
2022-10-09T06:18:39.486Z,7.79
2022-10-09T06:21:06.522Z,7.84
2022-10-09T06:23:33.723Z,7.89
2022-10-09T06:26:02.443Z,7.95
2022-10-09T06:28:30.030Z,8.00
2022-10-09T06:31:05.028Z,8.06
2022-10-09T06:33:33.042Z,8.11
2022-10-09T06:36:09.987Z,8.17
2022-10-09T06:38:37.872Z,8.21
2022-10-09T06:41:06.495Z,8.26
2022-10-09T06:43:33.198Z,8.31
2022-10-09T06:46:04.746Z,8.36
2022-10-09T06:48:32.496Z,8.42
2022-10-09T06:51:07.291Z,8.49
2022-10-09T06:53:44.014Z,8.55
2022-10-09T06:56:11.522Z,8.61
2022-10-09T06:58:39.277Z,8.67
2022-10-09T07:01:08.465Z,8.74
2022-10-09T07:03:36.172Z,8.81
2022-10-09T07:06:11.325Z,8.88
2022-10-09T07:08:39.435Z,8.96
2022-10-09T07:11:13.060Z,9.05
2022-10-09T07:13:41.021Z,9.10
2022-10-09T07:16:07.622Z,9.18
2022-10-09T07:18:35.214Z,9.26
2022-10-09T07:21:07.475Z,9.35
2022-10-09T07:23:35.176Z,9.41
2022-10-09T07:26:07.835Z,9.50
2022-10-09T07:28:34.196Z,9.58
2022-10-09T07:31:05.792Z,9.67
2022-10-09T07:33:32.560Z,9.73
2022-10-09T07:36:00.898Z,9.83
2022-10-09T07:38:27.927Z,9.91
2022-10-09T07:40:56.462Z,9.99
2022-10-09T07:43:22.784Z,10.07
2022-10-09T07:45:49.138Z,10.16
2022-10-09T07:48:15.512Z,10.25
2022-10-09T07:50:41.935Z,10.34
2022-10-09T07:53:08.762Z,10.43
2022-10-09T07:55:35.883Z,10.51
2022-10-09T07:58:02.467Z,10.60
2022-10-09T08:00:28.801Z,10.68
2022-10-09T08:02:55.601Z,10.75
2022-10-09T08:05:21.989Z,10.82
2022-10-09T08:07:48.397Z,10.90
2022-10-09T08:10:15.156Z,10.98
2022-10-09T08:12:41.511Z,11.05
2022-10-09T08:15:08.422Z,11.12
2022-10-09T08:17:34.931Z,11.20
2022-10-09T08:20:01.312Z,11.28
2022-10-09T08:22:27.703Z,11.34
2022-10-09T08:24:54.205Z,11.41
2022-10-09T08:27:20.526Z,11.49
2022-10-09T08:29:46.931Z,11.56
2022-10-09T08:32:13.391Z,11.63
2022-10-09T08:34:39.725Z,11.71
2022-10-09T08:37:06.342Z,11.79
2022-10-09T08:39:32.823Z,11.88
2022-10-09T08:42:03.878Z,11.96
2022-10-09T08:44:46.318Z,12.07
2022-10-09T08:47:21.839Z,12.15
2022-10-09T08:50:10.969Z,12.26
2022-10-09T08:52:52.979Z,12.37
2022-10-09T08:55:40.183Z,12.47
2022-10-09T08:58:07.148Z,12.55
2022-10-09T09:00:52.022Z,12.66
2022-10-09T09:03:37.786Z,12.73
2022-10-09T09:06:20.118Z,12.84
2022-10-09T09:09:02.035Z,12.92
2022-10-09T09:11:47.365Z,13.00
2022-10-09T09:14:40.079Z,13.11
2022-10-09T09:17:32.439Z,13.20
2022-10-09T09:20:07.712Z,13.30
2022-10-09T09:22:34.675Z,13.37
2022-10-09T09:25:07.646Z,13.45
2022-10-09T09:27:39.464Z,13.57
2022-10-09T09:30:12.117Z,13.67
2022-10-09T09:32:43.662Z,13.77
2022-10-09T09:35:28.245Z,13.88
2022-10-09T09:37:54.716Z,13.97
2022-10-09T09:40:36.770Z,14.09
2022-10-09T09:43:13.501Z,14.19
2022-10-09T09:45:39.944Z,14.31
2022-10-09T09:48:11.000Z,14.42
2022-10-09T09:50:50.490Z,14.49
2022-10-09T09:53:39.896Z,14.57
2022-10-09T09:56:07.060Z,14.62
2022-10-09T09:58:39.217Z,14.69
2022-10-09T10:01:07.232Z,14.75
2022-10-09T10:03:49.645Z,14.83
2022-10-09T10:06:30.903Z,14.92
2022-10-09T10:08:58.551Z,15.00
2022-10-09T10:11:25.141Z,15.07
2022-10-09T10:13:51.516Z,15.17
2022-10-09T10:16:26.871Z,15.25
2022-10-09T10:18:55.429Z,15.33
2022-10-09T10:21:22.407Z,15.42
2022-10-09T10:23:58.823Z,15.52
2022-10-09T10:26:31.510Z,15.60
2022-10-09T10:29:04.313Z,15.67
2022-10-09T10:31:52.728Z,15.77
2022-10-09T10:34:29.606Z,15.87
2022-10-09T10:37:15.940Z,15.95
2022-10-09T10:40:01.287Z,16.05
2022-10-09T10:42:44.443Z,16.17
2022-10-09T10:45:22.695Z,16.27
2022-10-09T10:47:53.312Z,16.35
2022-10-09T10:50:20.523Z,16.44
2022-10-09T10:53:10.937Z,16.55
2022-10-09T10:56:04.916Z,16.66
2022-10-09T10:58:46.928Z,16.77
2022-10-09T11:01:57.810Z,16.87
2022-10-09T11:04:30.306Z,16.95
2022-10-09T11:07:07.931Z,17.02
2022-10-09T11:09:54.942Z,17.11
2022-10-09T11:12:47.800Z,17.19
2022-10-09T11:15:30.844Z,17.29
2022-10-09T11:18:16.118Z,17.37
2022-10-09T11:20:54.688Z,17.45
2022-10-09T11:23:39.774Z,17.52
2022-10-09T11:26:43.502Z,17.61
2022-10-09T11:29:23.478Z,17.68
2022-10-09T11:31:56.105Z,17.75
2022-10-09T11:34:32.415Z,17.82
2022-10-09T11:37:01.228Z,17.88
2022-10-09T11:39:32.362Z,17.94
2022-10-09T11:42:00.498Z,17.98
2022-10-09T11:44:47.413Z,18.06
2022-10-09T11:47:21.574Z,18.12
2022-10-09T11:50:21.602Z,18.18
2022-10-09T11:53:03.199Z,18.26
2022-10-09T11:55:32.476Z,18.29
2022-10-09T11:58:18.593Z,18.34
2022-10-09T12:00:46.845Z,18.38
2022-10-09T12:03:27.194Z,18.44
2022-10-09T12:06:07.140Z,18.50
2022-10-09T12:08:34.227Z,18.55
2022-10-09T12:11:10.382Z,18.60
2022-10-09T12:13:51.186Z,18.63
2022-10-09T12:16:38.231Z,18.70
2022-10-09T12:19:27.575Z,18.74
2022-10-09T12:21:56.865Z,18.76
2022-10-09T12:24:27.484Z,18.80
2022-10-09T12:26:59.215Z,18.83
2022-10-09T12:29:34.099Z,18.88
2022-10-09T12:32:05.298Z,18.93
2022-10-09T12:34:37.129Z,18.95
2022-10-09T12:37:17.780Z,18.99
2022-10-09T12:39:45.012Z,18.99
2022-10-09T12:45:00.999Z,19.06
2022-10-09T12:47:29.934Z,19.09
2022-10-09T12:50:27.393Z,19.13
2022-10-09T12:52:57.447Z,19.13
2022-10-09T12:55:36.200Z,19.14
2022-10-09T12:58:06.692Z,19.16
2022-10-09T13:00:33.876Z,19.16
2022-10-09T13:03:01.345Z,19.17
2022-10-09T13:05:38.996Z,19.20
2022-10-09T13:08:15.363Z,19.24
2022-10-09T13:10:41.752Z,19.27
2022-10-09T13:13:19.851Z,19.32
2022-10-09T13:15:46.274Z,19.34
2022-10-09T13:18:21.038Z,19.36
2022-10-09T13:21:17.797Z,19.37
2022-10-09T13:23:44.151Z,19.37
2022-10-09T13:26:23.274Z,19.37
2022-10-09T13:28:49.872Z,19.36
2022-10-09T13:31:18.378Z,19.35
2022-10-09T13:33:45.602Z,19.36
2022-10-09T13:36:13.141Z,19.35
2022-10-09T13:38:39.800Z,19.36
2022-10-09T13:41:06.133Z,19.36
2022-10-09T13:43:32.899Z,19.36
2022-10-09T13:45:59.367Z,19.36
2022-10-09T13:48:25.867Z,19.36
2022-10-09T13:50:52.385Z,19.36
2022-10-09T13:53:18.732Z,19.37
2022-10-09T13:55:45.081Z,19.38
2022-10-09T13:58:11.463Z,19.39
2022-10-09T14:00:37.815Z,19.42
2022-10-09T14:03:04.760Z,19.43
2022-10-09T14:05:31.281Z,19.45
2022-10-09T14:07:58.003Z,19.46
2022-10-09T14:10:24.354Z,19.48
2022-10-09T14:12:51.613Z,19.49
2022-10-09T14:15:18.790Z,19.48
2022-10-09T14:17:45.471Z,19.48
2022-10-09T14:20:11.926Z,19.47
2022-10-09T14:22:38.532Z,19.47
2022-10-09T14:25:05.291Z,19.46
2022-10-09T14:27:31.782Z,19.45
2022-10-09T14:29:58.118Z,19.45
2022-10-09T14:32:24.545Z,19.44
2022-10-09T14:34:50.879Z,19.43
2022-10-09T14:37:24.069Z,19.41
2022-10-09T14:40:03.819Z,19.45
2022-10-09T14:42:30.111Z,19.47
2022-10-09T14:44:56.446Z,19.44
2022-10-09T14:47:22.827Z,19.40
2022-10-09T14:49:49.317Z,19.37
2022-10-09T14:52:15.669Z,19.35
2022-10-09T14:54:42.052Z,19.32
2022-10-09T14:57:08.414Z,19.29
2022-10-09T14:59:34.734Z,19.29
2022-10-09T15:02:01.304Z,19.27
2022-10-09T15:04:27.665Z,19.26
2022-10-09T15:06:54.403Z,19.24
2022-10-09T15:09:27.130Z,19.22
2022-10-09T15:11:53.946Z,19.19
2022-10-09T15:14:20.562Z,19.16
2022-10-09T15:16:49.599Z,19.12
2022-10-09T15:19:16.543Z,19.10
2022-10-09T15:21:43.048Z,19.07
2022-10-09T15:24:12.485Z,19.06
2022-10-09T15:26:42.384Z,19.03
2022-10-09T15:29:09.402Z,19.01
2022-10-09T15:31:41.041Z,19.00
2022-10-09T15:34:10.435Z,18.97
2022-10-09T15:36:39.807Z,18.96
2022-10-09T15:39:07.824Z,18.94
2022-10-09T15:41:37.086Z,18.91
2022-10-09T15:44:07.592Z,18.91
2022-10-09T15:46:33.933Z,18.88
2022-10-09T15:49:00.355Z,18.87
2022-10-09T15:51:26.919Z,18.84
2022-10-09T15:53:53.284Z,18.82
2022-10-09T15:56:24.360Z,18.81
2022-10-09T15:58:51.790Z,18.77
2022-10-09T16:01:19.030Z,18.75
2022-10-09T16:03:45.704Z,18.73
2022-10-09T16:06:14.996Z,18.71
2022-10-09T16:08:41.719Z,18.67
2022-10-09T16:11:10.654Z,18.65
2022-10-09T16:13:39.477Z,18.62
2022-10-09T16:16:08.336Z,18.59
2022-10-09T16:18:35.182Z,18.56
2022-10-09T16:21:16.482Z,18.55
2022-10-09T16:23:43.975Z,18.50
2022-10-09T16:26:13.677Z,18.47
2022-10-09T16:28:40.091Z,18.43
2022-10-09T16:31:06.522Z,18.38
2022-10-09T16:33:32.960Z,18.33
2022-10-09T16:36:12.656Z,18.29
2022-10-09T16:38:40.683Z,18.23
2022-10-09T16:41:09.062Z,18.15
2022-10-09T16:43:36.773Z,18.07
2022-10-09T16:46:19.409Z,17.97
2022-10-09T16:48:46.921Z,17.88
2022-10-09T16:51:16.733Z,17.78
2022-10-09T16:53:43.226Z,17.67
2022-10-09T16:56:12.573Z,17.58
2022-10-09T16:58:40.557Z,17.46
2022-10-09T17:01:09.832Z,17.37
2022-10-09T17:03:40.527Z,17.27
2022-10-09T17:06:16.217Z,17.17
2022-10-09T17:08:42.628Z,17.07
2022-10-09T17:11:10.699Z,16.96
2022-10-09T17:13:37.310Z,16.88
2022-10-09T17:16:17.793Z,16.78
2022-10-09T17:18:45.844Z,16.67
2022-10-09T17:21:13.420Z,16.59
2022-10-09T17:23:39.961Z,16.50
2022-10-09T17:26:18.157Z,16.43
2022-10-09T17:28:45.872Z,16.34
2022-10-09T17:31:14.500Z,16.27
2022-10-09T17:33:42.910Z,16.19
2022-10-09T17:36:10.279Z,16.12
2022-10-09T17:38:37.274Z,16.06
2022-10-09T17:41:10.742Z,15.99
2022-10-09T17:43:37.870Z,15.92
2022-10-09T17:46:04.797Z,15.86
2022-10-09T17:48:33.852Z,15.80
2022-10-09T17:51:03.507Z,15.75
2022-10-09T17:53:30.567Z,15.69
2022-10-09T17:56:01.525Z,15.64
2022-10-09T17:58:27.863Z,15.58
2022-10-09T18:00:54.357Z,15.54
2022-10-09T18:03:20.746Z,15.50
2022-10-09T18:05:49.235Z,15.46
2022-10-09T18:08:17.820Z,15.41
2022-10-09T18:10:44.351Z,15.37
2022-10-09T18:13:11.495Z,15.32
2022-10-09T18:15:40.987Z,15.29
2022-10-09T18:18:07.999Z,15.24
2022-10-09T18:20:36.092Z,15.21
2022-10-09T18:23:02.913Z,15.17
2022-10-09T18:25:29.375Z,15.13
2022-10-09T18:27:55.904Z,15.09
2022-10-09T18:30:22.495Z,15.05
2022-10-09T18:32:49.345Z,15.01
2022-10-09T18:35:15.875Z,14.98
2022-10-09T18:37:42.239Z,14.93
2022-10-09T18:40:08.815Z,14.89
2022-10-09T18:42:35.701Z,14.85
2022-10-09T18:45:02.742Z,14.80
2022-10-09T18:47:33.446Z,14.78
2022-10-09T18:50:02.663Z,14.72
2022-10-09T18:52:30.037Z,14.69
2022-10-09T18:54:58.379Z,14.66
2022-10-09T18:57:26.014Z,14.61
2022-10-09T18:59:54.262Z,14.57
2022-10-09T19:02:22.223Z,14.54
2022-10-09T19:04:48.575Z,14.50
2022-10-09T19:07:14.912Z,14.45
2022-10-09T19:09:41.256Z,14.41
2022-10-09T19:12:07.664Z,14.37
2022-10-09T19:14:35.527Z,14.33
2022-10-09T19:17:02.306Z,14.29
2022-10-09T19:19:29.802Z,14.25
2022-10-09T19:21:58.027Z,14.22
2022-10-09T19:24:24.491Z,14.19
2022-10-09T19:26:50.902Z,14.15
2022-10-09T19:29:17.295Z,14.12
2022-10-09T19:31:43.667Z,14.06
2022-10-09T19:34:11.337Z,14.03
2022-10-09T19:36:37.736Z,13.98
2022-10-09T19:39:05.266Z,13.95
2022-10-09T19:41:31.760Z,13.90
2022-10-09T19:43:59.574Z,13.87
2022-10-09T19:46:26.499Z,13.83
2022-10-09T19:48:53.202Z,13.79
2022-10-09T19:51:26.367Z,13.76
2022-10-09T19:53:53.489Z,13.70
2022-10-09T19:56:23.209Z,13.66
2022-10-09T19:58:50.260Z,13.59
2022-10-09T20:01:19.929Z,13.55
2022-10-09T20:03:46.956Z,13.49
2022-10-09T20:06:13.462Z,13.42
2022-10-09T20:08:42.071Z,13.38
2022-10-09T20:11:11.269Z,13.32
2022-10-09T20:13:39.431Z,13.28
2022-10-09T20:16:08.736Z,13.23
2022-10-09T20:18:35.360Z,13.17
2022-10-09T20:21:01.675Z,13.13
2022-10-09T20:23:28.015Z,13.10
2022-10-09T20:26:03.182Z,13.06
2022-10-09T20:28:34.088Z,13.04
2022-10-09T20:31:06.254Z,13.00
2022-10-09T20:33:33.766Z,12.97
2022-10-09T20:36:00.670Z,12.94
2022-10-09T20:38:27.082Z,12.92
2022-10-09T20:40:53.614Z,12.89
2022-10-09T20:43:20.241Z,12.87
2022-10-09T20:45:47.036Z,12.84
2022-10-09T20:48:13.396Z,12.83
2022-10-09T20:50:41.779Z,12.82
2022-10-09T20:53:12.127Z,12.80
2022-10-09T20:55:38.470Z,12.78
2022-10-09T20:58:05.005Z,12.76
2022-10-09T21:00:31.380Z,12.74
2022-10-09T21:02:57.915Z,12.73
2022-10-09T21:05:24.262Z,12.73
2022-10-09T21:07:50.803Z,12.72
2022-10-09T21:10:17.150Z,12.71
2022-10-09T21:12:43.491Z,12.70
2022-10-09T21:15:10.386Z,12.70
2022-10-09T21:17:36.720Z,12.69
2022-10-09T21:20:03.131Z,12.67
2022-10-09T21:22:29.592Z,12.67
2022-10-09T21:24:55.967Z,12.67
2022-10-09T21:27:22.305Z,12.67
2022-10-09T21:29:48.647Z,12.65
2022-10-09T21:32:15.071Z,12.66
2022-10-09T21:34:41.402Z,12.63
2022-10-09T21:37:21.848Z,12.63
2022-10-09T21:39:48.886Z,12.62
2022-10-09T21:42:15.237Z,12.60
2022-10-09T21:44:41.662Z,12.58
2022-10-09T21:47:14.841Z,12.57
2022-10-09T21:49:41.723Z,12.55
2022-10-09T21:52:09.253Z,12.51
2022-10-09T21:54:35.611Z,12.49
2022-10-09T21:57:02.018Z,12.48
2022-10-09T21:59:28.610Z,12.44
2022-10-09T22:01:54.977Z,12.43
2022-10-09T22:04:21.409Z,12.39
2022-10-09T22:06:47.819Z,12.37
2022-10-09T22:09:14.172Z,12.34
2022-10-09T22:11:40.518Z,12.32
2022-10-09T22:14:07.310Z,12.28
2022-10-09T22:16:33.655Z,12.27
2022-10-09T22:19:01.187Z,12.24
2022-10-09T22:21:27.697Z,12.20
2022-10-09T22:23:54.056Z,12.19
2022-10-09T22:26:22.469Z,12.16
2022-10-09T22:28:49.713Z,12.13
2022-10-09T22:31:22.349Z,12.11
2022-10-09T22:34:00.999Z,12.08
2022-10-09T22:36:29.951Z,12.04
2022-10-09T22:38:57.856Z,12.02
2022-10-09T22:41:27.086Z,12.00
2022-10-09T22:43:56.416Z,11.99
2022-10-09T22:46:25.825Z,11.96
2022-10-09T22:48:52.468Z,11.94
2022-10-09T22:51:21.105Z,11.92
2022-10-09T22:53:47.635Z,11.90
2022-10-09T22:56:25.178Z,11.89
2022-10-09T22:58:53.133Z,11.86
2022-10-09T23:01:27.120Z,11.86
2022-10-09T23:03:53.501Z,11.84
2022-10-09T23:06:20.190Z,11.83
2022-10-09T23:08:48.580Z,11.80
2022-10-09T23:11:16.967Z,11.78
2022-10-09T23:13:44.005Z,11.76
2022-10-09T23:16:12.128Z,11.76
2022-10-09T23:18:38.991Z,11.74
2022-10-09T23:21:08.263Z,11.73
2022-10-09T23:23:35.114Z,11.71
2022-10-09T23:26:06.319Z,11.70
2022-10-09T23:28:33.420Z,11.68
2022-10-09T23:31:10.795Z,11.68
2022-10-09T23:33:45.055Z,11.66
2022-10-09T23:36:14.060Z,11.64
2022-10-09T23:38:40.790Z,11.62
2022-10-09T23:41:10.570Z,11.62
2022-10-09T23:43:38.603Z,11.60
2022-10-09T23:46:07.415Z,11.59
2022-10-09T23:48:34.224Z,11.57
2022-10-09T23:51:00.647Z,11.55
2022-10-09T23:53:27.331Z,11.54
2022-10-09T23:55:54.414Z,11.51
2022-10-09T23:58:21.937Z,11.51
